Time;durP1;ratioP1;P1;durP2;ratioP2;P2;SDS_P1;SDS_P2;PMS_P1;PMS_P2;Temp;Humidity;BMP_temperature;BMP_pressure;BME280_temperature;BME280_humidity;BME280_pressure;Samples;Min_cycle;Max_cycle;Signal;HPM_P1;HPM_P2
2022/07/04 00:00:52;;;;;;;2.55;1.40;;;24.70;67.10;;;;;;5036407;28;20026;-72
2022/07/04 00:03:18;;;;;;;1.20;1.10;;;24.70;67.50;;;;;;5036873;28;20483;-72
2022/07/04 00:05:44;;;;;;;1.73;1.30;;;24.60;67.60;;;;;;5035928;28;20030;-72
2022/07/04 00:08:09;;;;;;;1.58;1.20;;;24.60;67.90;;;;;;5036550;28;20030;-72
2022/07/04 00:10:35;;;;;;;1.15;1.05;;;24.50;68.10;;;;;;5036494;28;20029;-73
2022/07/04 00:13:00;;;;;;;2.00;1.67;;;24.40;68.50;;;;;;5035869;28;20380;-73
2022/07/04 00:15:26;;;;;;;1.20;1.02;;;24.30;69.00;;;;;;5036478;28;20025;-72
2022/07/04 00:17:52;;;;;;;1.30;1.20;;;24.30;69.30;;;;;;5036012;28;20028;-72
2022/07/04 00:20:17;;;;;;;1.50;1.40;;;24.30;69.40;;;;;;5036625;28;20033;-73
2022/07/04 00:22:44;;;;;;;1.65;1.42;;;24.20;69.60;;;;;;5035705;28;20453;-72
2022/07/04 00:25:10;;;;;;;2.10;1.30;;;24.20;69.60;;;;;;5035865;28;20025;-72
2022/07/04 00:27:35;;;;;;;2.65;1.15;;;24.20;69.80;;;;;;5035779;28;20505;-72
2022/07/04 00:30:02;;;;;;;1.27;1.17;;;24.20;69.90;;;;;;5036047;28;20355;-72
2022/07/04 00:32:28;;;;;;;1.38;1.10;;;24.10;70.20;;;;;;5035866;28;20029;-73
2022/07/04 00:34:54;;;;;;;1.45;1.05;;;24.00;70.10;;;;;;5035933;28;20026;-72
2022/07/04 00:37:19;;;;;;;1.92;1.10;;;24.00;70.40;;;;;;5036080;28;20025;-73
2022/07/04 00:39:45;;;;;;;1.10;0.90;;;24.00;70.50;;;;;;5035695;28;20029;-73
2022/07/04 00:42:11;;;;;;;1.50;1.23;;;24.00;70.80;;;;;;5035657;28;20036;-72
2022/07/04 00:44:36;;;;;;;1.25;1.05;;;23.90;71.00;;;;;;5036183;28;20029;-72
2022/07/04 00:47:04;;;;;;;1.52;1.20;;;23.90;70.80;;;;;;5035396;28;20034;-72
2022/07/04 00:49:29;;;;;;;1.20;1.10;;;23.90;71.10;;;;;;5036125;28;20075;-73
2022/07/04 00:51:55;;;;;;;2.55;1.38;;;23.90;71.10;;;;;;5035487;28;20458;-73
2022/07/04 00:54:26;;;;;;;3.90;1.15;;;23.90;71.20;;;;;;5035866;28;20026;-73
2022/07/04 00:56:53;;;;;;;1.33;1.20;;;23.80;71.40;;;;;;5035421;28;20095;-71
2022/07/04 00:59:19;;;;;;;2.70;1.50;;;23.80;71.50;;;;;;5035543;28;20462;-72
2022/07/04 01:01:45;;;;;;;1.33;1.20;;;23.80;71.70;;;;;;5035684;28;20144;-72
2022/07/04 01:04:11;;;;;;;1.55;1.00;;;23.80;71.80;;;;;;5035055;28;20029;-72
2022/07/04 01:06:37;;;;;;;2.65;1.10;;;23.80;71.80;;;;;;5035060;28;20398;-73
2022/07/04 01:09:04;;;;;;;2.38;1.27;;;23.80;71.90;;;;;;5035094;28;20064;-72
2022/07/04 01:11:30;;;;;;;1.20;1.08;;;23.90;72.10;;;;;;5035417;28;20021;-72
2022/07/04 01:13:56;;;;;;;4.00;1.27;;;23.90;71.70;;;;;;5035316;28;20496;-73
2022/07/04 01:16:25;;;;;;;1.65;1.35;;;23.80;71.80;;;;;;5035125;28;20470;-73
2022/07/04 01:18:54;;;;;;;3.85;1.55;;;23.80;72.00;;;;;;5034859;28;20431;-72
2022/07/04 01:21:20;;;;;;;1.90;1.30;;;23.80;72.10;;;;;;5034976;28;20029;-72
2022/07/04 01:23:46;;;;;;;1.23;1.13;;;23.80;72.40;;;;;;5035513;28;20052;-72
2022/07/04 01:26:12;;;;;;;2.00;1.10;;;23.80;72.70;;;;;;5035158;28;20038;-73
2022/07/04 01:28:38;;;;;;;2.90;1.13;;;23.80;72.60;;;;;;5035302;28;20405;-72
2022/07/04 01:31:05;;;;;;;2.90;1.48;;;23.80;72.60;;;;;;5034727;28;20029;-72
2022/07/04 01:33:31;;;;;;;1.40;1.30;;;23.80;72.70;;;;;;5034422;28;20117;-72
2022/07/04 01:35:56;;;;;;;1.50;1.30;;;23.80;72.80;;;;;;5034581;28;20061;-71
2022/07/04 01:38:22;;;;;;;1.98;1.30;;;23.80;72.90;;;;;;5034853;28;20029;-72
2022/07/04 01:40:48;;;;;;;2.20;1.20;;;23.80;72.90;;;;;;5034930;28;20432;-72
2022/07/04 01:43:14;;;;;;;1.35;1.25;;;23.80;73.40;;;;;;5034305;28;20026;-72
2022/07/04 01:45:40;;;;;;;1.80;1.60;;;23.80;74.50;;;;;;5034718;28;20036;-72
2022/07/04 01:48:10;;;;;;;1.67;1.45;;;23.80;74.70;;;;;;5033826;28;20025;-72
2022/07/04 01:50:36;;;;;;;1.27;1.17;;;23.80;74.90;;;;;;5034466;28;20036;-72
2022/07/04 01:53:02;;;;;;;1.38;1.27;;;23.80;75.50;;;;;;5034286;28;20450;-72
2022/07/04 01:55:29;;;;;;;1.85;1.50;;;23.90;75.40;;;;;;5034672;28;20519;-72
2022/07/04 01:57:55;;;;;;;1.67;1.58;;;23.90;75.50;;;;;;5033932;28;20026;-71
2022/07/04 02:03:06;;;;;;;1.50;1.40;;;23.80;75.80;;;;;;5034095;28;20128;-72
2022/07/04 02:05:31;;;;;;;1.67;1.13;;;23.90;76.00;;;;;;5034060;28;20112;-71
2022/07/04 02:07:57;;;;;;;2.13;1.85;;;23.90;76.50;;;;;;5033965;28;20112;-72
2022/07/04 02:10:22;;;;;;;1.85;1.60;;;23.80;76.40;;;;;;5034342;28;20025;-72
2022/07/04 02:13:03;;;;;;;2.05;1.77;;;23.90;76.50;;;;;;5034334;28;20022;-72
2022/07/04 02:15:36;;;;;;;2.65;1.80;;;23.80;76.20;;;;;;5034145;28;20044;-72
2022/07/04 02:18:07;;;;;;;2.35;1.50;;;23.80;76.40;;;;;;5033042;28;20553;-72
2022/07/04 02:20:33;;;;;;;;;;;23.80;76.40;;;;;;5034325;28;20030;-72
2022/07/04 02:22:58;;;;;;;2.22;1.50;;;23.80;76.90;;;;;;5033384;28;19912;-72
2022/07/04 02:25:24;;;;;;;2.50;1.77;;;23.80;76.90;;;;;;5033853;28;20116;-73
2022/07/04 02:27:50;;;;;;;2.80;1.60;;;23.70;77.60;;;;;;5034127;28;20049;-72
2022/07/04 02:30:16;;;;;;;1.63;1.52;;;23.70;77.70;;;;;;5033561;28;20060;-72
2022/07/04 02:32:42;;;;;;;1.75;1.63;;;23.70;77.60;;;;;;5033769;28;20484;-73
2022/07/04 02:35:09;;;;;;;2.35;1.90;;;23.70;77.60;;;;;;5033308;28;20025;-73
2022/07/04 02:37:34;;;;;;;2.22;1.70;;;23.70;77.70;;;;;;5033466;28;20115;-72
2022/07/04 02:40:00;;;;;;;2.00;1.75;;;23.70;77.90;;;;;;5033254;28;20076;-72
2022/07/04 02:42:33;;;;;;;1.75;1.63;;;23.60;78.20;;;;;;5033617;28;20036;-72
2022/07/04 02:44:59;;;;;;;2.13;1.67;;;23.60;78.40;;;;;;5033207;28;20021;-72
2022/07/04 02:47:25;;;;;;;3.33;1.85;;;23.60;78.80;;;;;;5033486;28;20029;-72
2022/07/04 02:49:50;;;;;;;3.10;1.40;;;23.60;78.50;;;;;;5033307;28;20117;-72
2022/07/04 02:52:16;;;;;;;2.28;1.50;;;23.70;77.60;;;;;;5033442;28;20037;-72
2022/07/04 02:54:42;;;;;;;1.67;1.50;;;23.70;77.40;;;;;;5033468;28;20075;-72
2022/07/04 02:57:07;;;;;;;4.13;1.75;;;23.70;76.20;;;;;;5033040;28;20536;-71
2022/07/04 02:59:33;;;;;;;1.90;1.58;;;23.70;76.10;;;;;;5033373;28;20087;-73
2022/07/04 03:01:59;;;;;;;1.65;1.55;;;23.70;76.00;;;;;;5032865;28;20026;-71
2022/07/04 03:04:24;;;;;;;2.55;1.50;;;23.70;75.10;;;;;;5033121;28;20029;-72
2022/07/04 03:06:50;;;;;;;2.28;1.40;;;23.70;75.20;;;;;;5033255;28;20037;-72
2022/07/04 03:09:16;;;;;;;1.98;1.17;;;23.70;75.20;;;;;;5032735;28;20029;-72
2022/07/04 03:11:42;;;;;;;1.60;1.50;;;23.60;74.90;;;;;;5033168;28;20032;-72
2022/07/04 03:14:08;;;;;;;2.33;1.60;;;23.60;75.40;;;;;;5032702;28;20032;-72
2022/07/04 03:16:34;;;;;;;1.63;1.40;;;23.60;75.40;;;;;;5033111;28;20025;-72
2022/07/04 03:18:59;;;;;;;2.55;1.17;;;23.60;75.10;;;;;;5032726;28;20061;-73
2022/07/04 03:21:25;;;;;;;1.27;1.10;;;23.60;75.40;;;;;;5033243;28;20029;-73
2022/07/04 03:24:00;;;;;;;3.80;1.35;;;23.50;75.10;;;;;;5033119;28;20378;-72
2022/07/04 03:26:29;;;;;;;1.67;1.50;;;23.50;75.10;;;;;;5032210;28;20179;-71
2022/07/04 03:28:55;;;;;;;1.77;1.30;;;23.50;75.50;;;;;;5033223;28;20025;-72
2022/07/04 03:31:21;;;;;;;2.30;1.60;;;23.40;75.30;;;;;;5032290;28;20022;-72
2022/07/04 03:33:47;;;;;;;1.63;1.35;;;23.30;75.50;;;;;;5032764;28;20025;-73
2022/07/04 03:36:13;;;;;;;2.22;1.52;;;23.30;75.40;;;;;;5032410;28;20040;-72
2022/07/04 03:38:38;;;;;;;2.00;1.42;;;23.20;75.80;;;;;;5032874;28;20037;-72
2022/07/04 03:41:04;;;;;;;1.73;1.30;;;23.20;75.80;;;;;;5032132;28;20033;-72
2022/07/04 03:43:29;;;;;;;2.45;1.58;;;23.20;76.00;;;;;;5032771;28;20100;-72
2022/07/04 03:45:55;;;;;;;2.28;1.48;;;23.20;76.00;;;;;;5032465;28;20132;-72
2022/07/04 03:48:21;;;;;;;1.58;1.30;;;23.20;76.00;;;;;;5032234;28;20033;-72
2022/07/04 03:50:46;;;;;;;1.60;1.33;;;23.10;76.00;;;;;;5032674;28;20037;-72
2022/07/04 03:53:12;;;;;;;1.50;1.27;;;23.10;76.30;;;;;;5032338;28;20100;-72
2022/07/04 03:55:39;;;;;;;1.25;1.00;;;23.00;76.40;;;;;;5032247;28;20100;-72
2022/07/04 03:58:05;;;;;;;1.75;1.33;;;23.00;76.80;;;;;;5031735;28;20021;-72
2022/07/04 04:00:31;;;;;;;1.98;1.35;;;23.00;76.80;;;;;;5032562;28;20379;-72
2022/07/04 04:02:57;;;;;;;1.67;1.35;;;23.00;76.90;;;;;;5032693;28;20036;-72
2022/07/04 04:05:26;;;;;;;1.65;1.20;;;23.00;77.00;;;;;;5031823;28;20033;-73
2022/07/04 04:07:55;;;;;;;2.22;1.40;;;23.10;77.00;;;;;;5032497;28;20038;-72
2022/07/04 04:10:22;;;;;;;2.03;1.50;;;23.10;76.90;;;;;;5032420;28;20030;-72
2022/07/04 04:12:47;;;;;;;4.70;2.25;;;23.10;77.00;;;;;;5032551;28;20474;-73
2022/07/04 04:15:13;;;;;;;1.45;1.30;;;23.20;76.80;;;;;;5032186;28;20108;-73
2022/07/04 04:17:39;;;;;;;1.65;1.45;;;23.30;76.80;;;;;;5032839;28;20382;-72
2022/07/04 04:20:05;;;;;;;2.33;1.30;;;23.30;76.50;;;;;;5031697;28;20378;-72
2022/07/04 04:22:31;;;;;;;1.33;1.23;;;23.40;76.10;;;;;;5032508;28;20025;-72
2022/07/04 04:24:57;;;;;;;1.42;1.33;;;23.50;75.90;;;;;;5032312;28;20022;-72
2022/07/04 04:27:23;;;;;;;3.05;1.65;;;23.50;75.50;;;;;;5031663;28;20184;-71
2022/07/04 04:29:49;;;;;;;2.50;1.40;;;23.60;75.20;;;;;;5032407;28;20109;-72
2022/07/04 04:32:14;;;;;;;1.58;1.20;;;23.60;74.60;;;;;;5013910;28;20033;-72
2022/07/04 04:34:40;;;;;;;3.53;1.98;;;23.70;74.40;;;;;;5032254;28;20036;-72
2022/07/04 04:37:06;;;;;;;2.35;1.30;;;23.80;74.00;;;;;;5031817;28;20420;-72
2022/07/04 04:39:31;;;;;;;5.72;1.70;;;23.90;74.00;;;;;;5031947;28;20386;-71
2022/07/04 04:41:57;;;;;;;2.15;1.45;;;24.00;73.40;;;;;;5033183;28;20022;-72
2022/07/04 04:44:23;;;;;;;1.90;1.50;;;24.00;73.00;;;;;;5035159;28;20393;-72
2022/07/04 04:46:48;;;;;;;1.83;1.48;;;24.00;73.00;;;;;;5035555;28;20041;-72
2022/07/04 04:49:14;;;;;;;1.80;1.33;;;24.20;72.60;;;;;;5035198;28;20025;-72
2022/07/04 04:51:40;;;;;;;1.60;1.50;;;24.20;72.00;;;;;;5035530;28;20026;-72
2022/07/04 04:54:05;;;;;;;2.05;1.38;;;24.30;72.00;;;;;;5035061;28;20068;-70
2022/07/04 04:56:31;;;;;;;1.67;1.35;;;24.40;71.90;;;;;;5035185;28;20083;-72
2022/07/04 04:58:57;;;;;;;3.20;1.80;;;24.50;71.80;;;;;;5035282;28;20022;-72
2022/07/04 05:01:22;;;;;;;2.00;1.75;;;24.70;71.60;;;;;;5034961;28;20025;-72
2022/07/04 05:03:48;;;;;;;2.10;1.60;;;24.80;71.20;;;;;;5035093;28;20388;-71
2022/07/04 05:06:14;;;;;;;1.70;1.60;;;24.90;70.60;;;;;;5034709;28;20116;-73
2022/07/04 05:08:39;;;;;;;1.40;1.27;;;25.00;69.50;;;;;;5035344;28;20048;-72
2022/07/04 05:11:05;;;;;;;2.03;1.55;;;25.10;69.50;;;;;;5035013;28;20079;-73
2022/07/04 05:13:31;;;;;;;2.42;1.38;;;25.20;69.00;;;;;;5034877;28;20048;-73
2022/07/04 05:15:57;;;;;;;1.52;1.38;;;25.30;69.20;;;;;;5034818;28;20466;-72
2022/07/04 05:18:23;;;;;;;1.73;1.25;;;25.40;69.10;;;;;;5034718;28;20048;-72
2022/07/04 05:20:48;;;;;;;2.30;1.50;;;25.60;68.40;;;;;;5034899;28;20037;-72
2022/07/04 05:23:14;;;;;;;2.15;1.58;;;25.80;67.40;;;;;;5034364;28;20025;-73
2022/07/04 05:25:40;;;;;;;1.60;1.50;;;25.80;66.80;;;;;;5034794;28;20501;-71
2022/07/04 05:28:05;;;;;;;3.33;2.05;;;25.90;66.90;;;;;;5034435;28;20468;-72
2022/07/04 05:30:31;;;;;;;3.65;1.70;;;26.10;66.60;;;;;;5034394;28;20026;-73
2022/07/04 05:32:58;;;;;;;1.98;1.60;;;26.30;66.80;;;;;;5034623;28;20018;-73
2022/07/04 05:35:24;;;;;;;4.25;1.92;;;26.60;66.30;;;;;;5033514;28;20087;-72
2022/07/04 05:37:49;;;;;;;1.90;1.70;;;27.00;65.10;;;;;;5034473;28;20561;-72
2022/07/04 05:40:15;;;;;;;2.03;1.83;;;27.30;63.30;;;;;;5034012;28;20119;-72
2022/07/04 05:42:41;;;;;;;3.35;1.83;;;27.30;62.10;;;;;;5034728;28;20018;-73
2022/07/04 05:45:07;;;;;;;2.40;1.65;;;27.40;61.60;;;;;;5034339;28;20039;-73
2022/07/04 05:47:33;;;;;;;2.65;1.60;;;27.30;61.30;;;;;;5034507;28;20021;-73
2022/07/04 05:50:00;;;;;;;2.50;1.85;;;27.30;61.50;;;;;;5033802;28;20048;-72
2022/07/04 05:52:25;;;;;;;1.98;1.60;;;27.10;61.80;;;;;;5033668;28;20026;-72
2022/07/04 05:54:51;;;;;;;2.85;2.08;;;27.10;62.50;;;;;;5032954;28;20036;-73
2022/07/04 05:57:17;;;;;;;2.65;1.83;;;27.20;63.90;;;;;;5016143;28;20035;-73
2022/07/04 05:59:44;;;;;;;2.80;2.03;;;27.40;62.70;;;;;;5033992;28;20030;-73
2022/07/04 06:02:10;;;;;;;3.55;1.80;;;27.80;63.10;;;;;;5033366;28;20029;-73
2022/07/04 06:04:35;;;;;;;2.05;1.85;;;28.20;62.10;;;;;;5034142;28;20060;-73
2022/07/04 06:07:01;;;;;;;1.90;1.60;;;28.50;60.20;;;;;;5033703;28;20041;-72
2022/07/04 06:09:26;;;;;;;1.83;1.40;;;28.60;59.10;;;;;;5033495;28;20064;-73
2022/07/04 06:11:52;;;;;;;1.67;1.58;;;28.90;59.40;;;;;;5033735;28;20021;-72
2022/07/04 06:14:18;;;;;;;2.08;1.80;;;29.10;57.50;;;;;;5033261;28;20022;-73
2022/07/04 06:16:43;;;;;;;2.13;1.85;;;29.20;59.10;;;;;;5033528;28;20099;-73
2022/07/04 06:19:09;;;;;;;4.40;1.40;;;29.60;57.80;;;;;;5015953;28;20028;-73
2022/07/04 06:21:35;;;;;;;1.77;1.50;;;30.30;57.20;;;;;;5033527;28;20056;-71
2022/07/04 06:24:02;;;;;;;2.70;2.10;;;30.80;54.60;;;;;;5033863;28;20022;-73
2022/07/04 06:26:27;;;;;;;2.05;1.73;;;30.70;53.30;;;;;;5033056;28;20041;-73
2022/07/04 06:28:53;;;;;;;2.95;1.40;;;30.30;54.20;;;;;;5033660;28;20033;-73
2022/07/04 06:31:19;;;;;;;2.75;1.50;;;30.00;54.70;;;;;;5032969;28;20033;-73
2022/07/04 06:36:30;;;;;;;2.53;1.50;;;29.60;55.00;;;;;;5032608;28;20083;-72
2022/07/04 06:38:55;;;;;;;3.03;1.80;;;29.30;56.40;;;;;;5033255;28;20469;-72
2022/07/04 06:41:21;;;;;;;2.28;1.70;;;29.20;57.10;;;;;;5032788;28;20051;-72
2022/07/04 06:43:47;;;;;;;2.15;1.77;;;29.20;57.40;;;;;;5032939;28;20151;-72
2022/07/04 06:46:12;;;;;;;1.77;1.30;;;29.00;58.00;;;;;;5032787;28;20029;-72
2022/07/04 06:48:38;;;;;;;2.10;1.42;;;28.80;58.60;;;;;;5032790;28;20466;-72
2022/07/04 06:51:04;;;;;;;1.80;1.35;;;28.60;57.30;;;;;;5033726;28;20045;-72
2022/07/04 06:53:29;;;;;;;3.20;1.48;;;28.60;57.00;;;;;;5032464;28;20087;-72
2022/07/04 06:55:55;;;;;;;1.38;1.27;;;28.60;58.20;;;;;;5032691;28;20117;-72
2022/07/04 06:58:21;;;;;;;1.30;1.20;;;28.70;58.80;;;;;;5032515;28;20021;-72
2022/07/04 07:00:46;;;;;;;1.48;1.38;;;28.70;60.00;;;;;;5032875;28;20381;-73
2022/07/04 07:03:12;;;;;;;1.30;1.20;;;29.40;59.80;;;;;;5033143;28;20029;-72
2022/07/04 07:05:37;;;;;;;1.23;1.13;;;29.60;57.90;;;;;;5032853;28;20033;-72
2022/07/04 07:08:04;;;;;;;1.73;1.13;;;30.10;56.10;;;;;;5015573;28;20029;-72
2022/07/04 07:10:32;;;;;;;1.40;1.08;;;30.20;54.80;;;;;;5032503;28;20036;-73
2022/07/04 07:12:58;;;;;;;1.40;1.30;;;30.10;53.40;;;;;;5032820;28;20454;-72
2022/07/04 07:15:24;;;;;;;1.52;1.42;;;29.90;54.50;;;;;;5032826;28;20029;-72
2022/07/04 07:17:49;;;;;;;1.17;1.08;;;29.70;54.30;;;;;;5032731;28;20037;-72
2022/07/04 07:20:16;;;;;;;1.35;0.90;;;29.90;54.60;;;;;;5032553;28;20029;-72
2022/07/04 07:22:42;;;;;;;2.47;1.15;;;29.90;53.80;;;;;;5032900;28;20026;-72
2022/07/04 07:25:11;;;;;;;1.33;1.17;;;29.60;53.90;;;;;;5032487;28;20022;-72
2022/07/04 07:27:39;;;;;;;2.67;1.15;;;29.30;54.50;;;;;;5032016;28;20049;-71
2022/07/04 07:30:05;;;;;;;1.95;1.40;;;29.80;55.70;;;;;;5032516;28;20057;-72
2022/07/04 07:32:31;;;;;;;1.75;1.20;;;30.10;54.60;;;;;;5032105;28;20025;-72
2022/07/04 07:34:57;;;;;;;1.60;1.20;;;29.70;54.50;;;;;;5032608;28;20041;-71
2022/07/04 07:37:22;;;;;;;1.98;1.23;;;29.60;54.80;;;;;;5031839;28;20340;-72
2022/07/04 07:39:49;;;;;;;1.77;1.42;;;29.60;56.80;;;;;;5032351;28;20473;-72
2022/07/04 07:42:15;;;;;;;2.42;1.45;;;30.00;55.20;;;;;;5032568;28;20025;-72
2022/07/04 07:44:41;;;;;;;1.70;1.00;;;29.90;54.60;;;;;;5032302;28;20367;-71
2022/07/04 07:47:07;;;;;;;1.35;1.23;;;29.80;54.60;;;;;;5031915;28;20033;-71
2022/07/04 07:49:33;;;;;;;1.13;1.02;;;29.80;54.20;;;;;;5032077;28;20025;-72
2022/07/04 07:51:58;;;;;;;1.95;1.40;;;29.40;53.90;;;;;;5032880;28;20073;-71
2022/07/04 07:54:24;;;;;;;2.05;1.15;;;29.00;54.10;;;;;;5032485;28;20092;-72
2022/07/04 07:56:50;;;;;;;0.80;0.80;;;28.60;54.30;;;;;;5032243;28;20045;-72
2022/07/04 07:59:16;;;;;;;1.40;0.82;;;28.30;55.00;;;;;;5032477;28;20492;-71
2022/07/04 08:01:41;;;;;;;0.93;0.80;;;28.10;54.70;;;;;;5014645;28;20060;-72
2022/07/04 08:06:51;;;;;;;1.85;0.93;;;27.90;54.80;;;;;;5032280;28;20132;-71
2022/07/04 08:09:17;;;;;;;1.08;0.90;;;27.80;54.10;;;;;;5032147;28;20478;-71
2022/07/04 08:11:43;;;;;;;1.48;0.70;;;27.60;54.40;;;;;;5032389;28;20112;-71
2022/07/04 08:14:08;;;;;;;1.17;0.77;;;27.50;55.20;;;;;;5032356;28;20389;-72
2022/07/04 08:16:34;;;;;;;2.17;0.80;;;27.50;55.60;;;;;;5032376;28;20034;-71
2022/07/04 08:19:01;;;;;;;0.93;0.80;;;27.60;55.40;;;;;;5036269;28;20026;-71
2022/07/04 08:21:27;;;;;;;0.70;0.70;;;27.60;55.80;;;;;;5035830;28;20025;-72
2022/07/04 08:23:52;;;;;;;1.30;0.88;;;27.80;55.70;;;;;;5036147;28;20481;-71
2022/07/04 08:26:19;;;;;;;1.08;0.98;;;27.90;55.00;;;;;;5036262;28;20040;-72
2022/07/04 08:28:45;;;;;;;2.45;1.17;;;28.00;55.10;;;;;;5035742;28;20049;-72
2022/07/04 08:31:10;;;;;;;0.90;0.90;;;28.20;54.80;;;;;;5035839;28;20029;-72
2022/07/04 08:33:36;;;;;;;0.77;0.77;;;28.30;54.10;;;;;;5035641;28;20040;-72
2022/07/04 08:36:02;;;;;;;1.55;0.73;;;28.40;53.20;;;;;;5035923;28;20036;-71
2022/07/04 08:38:28;;;;;;;1.15;0.77;;;28.30;53.10;;;;;;5035373;28;20033;-72
2022/07/04 08:40:57;;;;;;;0.90;0.70;;;28.30;53.40;;;;;;5035858;28;20025;-72
2022/07/04 08:43:24;;;;;;;0.98;0.73;;;28.30;53.60;;;;;;5035366;28;20021;-72
2022/07/04 08:45:53;;;;;;;1.10;0.90;;;28.30;53.50;;;;;;5035360;28;20473;-72
2022/07/04 08:48:23;;;;;;;2.60;0.88;;;28.40;53.80;;;;;;5035651;28;20025;-72
2022/07/04 08:50:51;;;;;;;1.05;0.95;;;28.40;53.40;;;;;;5035224;28;20076;-73
2022/07/04 08:53:20;;;;;;;1.80;0.80;;;28.30;53.20;;;;;;5035550;28;20449;-72
2022/07/04 08:58:33;;;;;;;1.58;1.08;;;28.10;52.90;;;;;;5035344;28;20425;-72
2022/07/04 09:01:04;;;;;;;1.73;0.80;;;27.90;53.30;;;;;;5035466;28;20489;-72
2022/07/04 09:03:31;;;;;;;0.93;0.77;;;27.90;53.70;;;;;;5035072;28;20108;-72
2022/07/04 09:05:58;;;;;;;1.38;1.02;;;27.80;54.20;;;;;;5035200;28;20030;-72
2022/07/04 09:08:24;;;;;;;1.20;1.10;;;27.80;54.70;;;;;;5034833;28;20034;-73
2022/07/04 09:10:52;;;;;;;1.40;0.80;;;27.70;54.90;;;;;;5035286;28;20083;-73
2022/07/04 09:13:18;;;;;;;1.00;0.90;;;27.70;55.20;;;;;;5035236;28;20030;-70
2022/07/04 09:15:48;;;;;;;0.80;0.80;;;27.60;55.20;;;;;;5034916;28;20041;-73
2022/07/04 09:18:26;;;;;;;1.30;0.95;;;27.60;55.20;;;;;;5034900;28;20056;-73
2022/07/04 09:20:53;;;;;;;1.15;0.80;;;27.50;55.00;;;;;;5035210;28;20028;-71
2022/07/04 09:23:22;;;;;;;1.08;0.80;;;27.40;55.10;;;;;;5034966;28;20033;-72
2022/07/04 09:25:49;;;;;;;0.77;0.73;;;27.40;55.50;;;;;;5034644;28;20088;-73
2022/07/04 09:28:28;;;;;;;0.82;0.80;;;27.30;55.70;;;;;;5034330;28;20045;-73
2022/07/04 09:30:54;;;;;;;0.95;0.90;;;27.30;55.60;;;;;;5034685;28;20513;-72
2022/07/04 09:33:21;;;;;;;1.45;1.00;;;27.20;55.80;;;;;;5034706;28;20025;-72
2022/07/04 09:35:47;;;;;;;1.65;0.82;;;27.20;56.10;;;;;;5034427;28;20045;-71
2022/07/04 09:38:23;;;;;;;1.45;0.90;;;27.10;56.20;;;;;;5034635;28;20021;-71
2022/07/04 09:43:37;;;;;;;0.82;0.80;;;27.10;56.80;;;;;;5034341;28;20083;-71
2022/07/04 09:46:03;;;;;;;1.30;0.98;;;27.00;57.40;;;;;;5034048;28;20037;-72
2022/07/04 09:48:48;;;;;;;1.02;0.90;;;27.10;57.20;;;;;;5034029;28;20440;-72
2022/07/04 09:51:14;;;;;;;1.27;1.08;;;27.10;57.10;;;;;;5034404;28;20352;-71
2022/07/04 09:53:39;;;;;;;2.75;1.00;;;27.10;57.40;;;;;;5033771;28;20033;-71
2022/07/04 09:56:05;;;;;;;1.23;1.02;;;27.10;57.50;;;;;;5034610;28;20127;-72
2022/07/04 09:58:31;;;;;;;1.75;0.90;;;27.10;57.60;;;;;;5033995;28;20520;-72
2022/07/04 10:00:59;;;;;;;1.70;0.93;;;27.10;57.60;;;;;;5034710;28;20068;-72
2022/07/04 10:03:32;;;;;;;1.00;0.90;;;27.10;57.60;;;;;;5034372;28;20055;-72
2022/07/04 10:06:11;;;;;;;1.80;1.13;;;27.10;57.70;;;;;;5017156;28;20044;-72
2022/07/04 10:08:38;;;;;;;2.03;1.20;;;27.20;57.60;;;;;;5033552;28;20045;-71
2022/07/04 10:11:05;;;;;;;2.33;0.98;;;27.20;57.80;;;;;;5034052;28;20091;-71
2022/07/04 10:13:31;;;;;;;4.25;0.90;;;27.30;57.90;;;;;;5033574;28;20029;-71
2022/07/04 10:15:58;;;;;;;2.05;1.33;;;27.30;57.90;;;;;;5034270;28;20025;-71
2022/07/04 10:18:24;;;;;;;2.35;1.00;;;27.30;57.40;;;;;;5033658;28;20484;-73
2022/07/04 10:20:51;;;;;;;0.95;0.93;;;27.40;57.30;;;;;;5033189;28;20028;-71
2022/07/04 10:23:21;;;;;;;1.33;1.02;;;27.40;57.50;;;;;;5033983;28;20092;-72
2022/07/04 10:25:53;;;;;;;1.30;1.10;;;27.40;57.70;;;;;;5033246;28;20041;-71
2022/07/04 10:28:19;;;;;;;1.20;1.10;;;27.50;57.90;;;;;;5033883;28;20111;-71
2022/07/04 10:30:56;;;;;;;3.42;1.13;;;27.50;58.00;;;;;;5033147;28;20033;-71
2022/07/04 10:33:27;;;;;;;1.52;1.27;;;27.50;56.80;;;;;;5033521;28;20021;-71
2022/07/04 10:36:03;;;;;;;1.08;0.98;;;27.50;56.40;;;;;;5033474;28;20437;-72
2022/07/04 10:38:30;;;;;;;1.05;0.90;;;27.50;55.70;;;;;;5033367;28;20029;-72
2022/07/04 10:40:59;;;;;;;1.23;0.90;;;27.50;55.60;;;;;;5032886;28;20041;-72
2022/07/04 10:43:25;;;;;;;1.42;0.98;;;27.50;56.10;;;;;;5033556;28;20036;-72
2022/07/04 10:45:52;;;;;;;1.02;0.93;;;27.50;56.40;;;;;;5032958;28;20128;-72
2022/07/04 10:48:23;;;;;;;2.63;1.20;;;27.50;55.40;;;;;;5033499;28;20028;-72
2022/07/04 10:51:38;;;;;;;1.70;1.10;;;27.50;55.00;;;;;;5032913;28;20327;-72
2022/07/04 10:54:08;;;;;;;2.15;0.90;;;27.50;55.00;;;;;;4998994;28;20439;-71
2022/07/04 10:56:40;;;;;;;1.23;1.10;;;27.60;55.30;;;;;;5032859;28;20029;-71
2022/07/04 10:59:15;;;;;;;1.20;1.10;;;27.70;56.00;;;;;;5033362;28;20060;-71
2022/07/04 11:01:48;;;;;;;2.17;1.15;;;27.80;54.40;;;;;;5032858;28;20418;-71
2022/07/04 11:04:51;;;;;;;1.50;0.90;;;27.90;54.20;;;;;;5033033;28;20053;-71
2022/07/04 11:07:22;;;;;;;1.52;0.95;;;28.00;53.80;;;;;;5033006;28;20489;-72
2022/07/04 11:10:11;;;;;;;1.05;0.95;;;28.10;54.30;;;;;;5032624;28;20517;-71
2022/07/04 11:12:54;;;;;;;1.27;0.95;;;28.30;54.50;;;;;;5032519;28;20065;-72
2022/07/04 11:15:32;;;;;;;1.80;1.23;;;28.40;54.50;;;;;;5032950;28;20026;-71
2022/07/04 11:18:02;;;;;;;0.90;0.90;;;28.50;54.40;;;;;;5032961;28;20057;-72
2022/07/04 11:20:30;;;;;;;1.10;1.00;;;28.70;55.00;;;;;;5032964;28;20060;-72
2022/07/04 11:23:12;;;;;;;0.90;0.80;;;28.90;53.20;;;;;;5032401;28;20030;-71
2022/07/04 11:25:39;;;;;;;1.60;0.90;;;29.00;52.80;;;;;;5032168;28;20034;-71
2022/07/04 11:28:24;;;;;;;1.20;1.10;;;29.10;52.30;;;;;;5032610;28;20068;-71
2022/07/04 11:30:51;;;;;;;1.55;0.98;;;29.20;52.30;;;;;;5032339;28;20017;-71
2022/07/04 11:33:18;;;;;;;1.15;0.98;;;29.20;52.60;;;;;;5032456;28;20470;-71
2022/07/04 11:35:44;;;;;;;3.30;1.00;;;29.30;52.80;;;;;;5032024;28;20079;-71
2022/07/04 11:38:09;;;;;;;1.13;0.90;;;29.30;51.60;;;;;;5032741;28;20416;-71
2022/07/04 11:46:13;;;;;;;1.45;1.17;;;29.50;51.30;;;;;;5032485;28;20079;-71
2022/07/04 11:48:38;;;;;;;1.20;1.10;;;29.50;51.30;;;;;;5032209;28;20029;-71
2022/07/04 11:51:16;;;;;;;1.08;1.00;;;29.50;51.30;;;;;;5033631;28;20174;-71
2022/07/04 11:53:41;;;;;;;1.08;0.90;;;29.60;51.50;;;;;;5036315;28;20021;-71
2022/07/04 11:56:09;;;;;;;0.95;0.90;;;29.70;50.90;;;;;;5036667;28;20091;-71
2022/07/04 11:58:42;;;;;;;0.85;0.82;;;29.70;50.80;;;;;;5036504;28;20022;-71
2022/07/04 12:01:09;;;;;;;0.75;0.73;;;29.80;49.80;;;;;;5036609;28;20022;-71
2022/07/04 12:03:35;;;;;;;0.75;0.75;;;29.80;49.20;;;;;;5036108;28;20056;-71
2022/07/04 12:06:08;;;;;;;1.10;1.00;;;29.80;48.90;;;;;;5036176;28;20079;-71
2022/07/04 12:08:33;;;;;;;1.05;0.93;;;29.90;49.30;;;;;;5036518;28;20116;-72
2022/07/04 12:10:59;;;;;;;1.20;1.00;;;29.90;49.70;;;;;;5036085;28;20064;-71
2022/07/04 12:13:24;;;;;;;0.73;0.73;;;30.00;50.30;;;;;;5036378;28;20414;-71
2022/07/04 12:15:52;;;;;;;1.00;0.90;;;30.00;49.90;;;;;;5035611;28;20029;-71
2022/07/04 12:18:27;;;;;;;2.83;0.80;;;30.00;50.60;;;;;;5036364;28;20470;-72
2022/07/04 12:20:53;;;;;;;1.30;1.20;;;30.00;50.80;;;;;;5036010;28;20037;-72
2022/07/04 12:23:21;;;;;;;1.33;0.88;;;30.00;50.40;;;;;;5036182;28;20049;-71
2022/07/04 12:25:49;;;;;;;1.25;0.90;;;29.90;50.90;;;;;;5035734;28;20037;-71
2022/07/04 12:28:16;;;;;;;1.30;1.20;;;29.90;50.10;;;;;;5035527;28;20049;-71
2022/07/04 12:30:52;;;;;;;0.63;0.63;;;29.90;49.60;;;;;;5035666;28;20033;-71
2022/07/04 12:33:26;;;;;;;1.27;0.80;;;29.90;49.00;;;;;;5036403;28;20033;-71
2022/07/04 12:36:10;;;;;;;1.00;0.90;;;29.90;48.00;;;;;;5035383;28;20505;-71
2022/07/04 12:38:37;;;;;;;1.15;0.98;;;29.90;48.20;;;;;;5036117;28;20029;-71
2022/07/04 12:41:10;;;;;;;5.20;1.30;;;29.80;48.40;;;;;;5036160;28;20326;-71
2022/07/04 12:43:39;;;;;;;0.82;0.75;;;29.80;47.60;;;;;;5035895;28;20033;-71
2022/07/04 12:46:05;;;;;;;0.80;0.80;;;29.90;47.90;;;;;;5035713;28;20488;-71
2022/07/04 12:48:31;;;;;;;0.68;0.68;;;29.90;46.50;;;;;;5035737;28;20057;-71
2022/07/04 12:51:11;;;;;;;3.80;0.80;;;29.90;46.50;;;;;;5035574;28;20056;-71
2022/07/04 12:53:38;;;;;;;1.13;0.90;;;29.90;47.00;;;;;;5035862;28;20057;-71
2022/07/04 12:56:05;;;;;;;1.65;0.98;;;30.00;47.00;;;;;;5035542;28;20022;-71
2022/07/04 12:58:31;;;;;;;1.40;1.00;;;30.00;46.90;;;;;;5035634;28;20025;-72
2022/07/04 13:00:56;;;;;;;0.93;0.68;;;30.10;47.00;;;;;;5035092;28;20450;-72
2022/07/04 13:03:23;;;;;;;1.25;0.90;;;30.20;47.00;;;;;;5034478;28;20057;-72
2022/07/04 13:05:49;;;;;;;2.10;0.85;;;30.20;46.80;;;;;;5034947;28;20075;-71
2022/07/04 13:08:15;;;;;;;0.95;0.88;;;30.20;47.00;;;;;;5035583;28;20079;-72